Seaexpressii — HO4619 — position and weather

sailwx.info

Track history (hours):
 
Tides and Currents Weather Stations Pressure Air Temp Water Temp Dewpoint Dewpoint Depression Visibility Wind Speed Wind Dir Waves Ship Positions

Seaexpressii

Last reported at 2015-Jan-26 08:08 UTC. Time now 2015-Jan-27 10:24 UTC.
Position N 25°58' W 079°37'.

Length 37 m; draft 2 m.

Type: Ship. MMSI: 356449000.

Date/timePositionNaut miles runAvg speedWind from/ knotsBaromVisibWave heightAir tempDewpointWater temp
2015-Jan-26 08:08N 25°58' W 079°37'5 9.4
2015-Jan-26 07:33N 25°60' W 079°43'9 9.0
2015-Jan-26 06:32N 26°02' W 079°53'9 9.3
2015-Jan-26 05:33N 26°05' W 080°03'5 4.7
2015-Jan-26 04:33N 26°04' W 080°08'0 0.0
2015-Jan-26 03:33N 26°04' W 080°08'0 0.0
2015-Jan-26 02:33N 26°04' W 080°08'0 0.0
2015-Jan-26 01:33N 26°04' W 080°08'0 0.0
2015-Jan-26 00:33N 26°04' W 080°08'0 0.0
2015-Jan-25 23:33N 26°04' W 080°08'3 2.6
2015-Jan-25 22:33N 26°05' W 080°05'0 0.0
2015-Jan-25 21:33N 26°05' W 080°05'8 8.5
2015-Jan-25 20:34N 26°00' W 079°58'1110.9
2015-Jan-25 19:33N 25°54' W 079°48'5 0.4
2015-Jan-25 06:33N 25°57' W 079°52'8 8.0
2015-Jan-25 05:33N 26°01' W 079°59'8 7.9
2015-Jan-25 04:33N 26°05' W 080°07'2 1.7
2015-Jan-25 03:34N 26°04' W 080°08'0 0.0
2015-Jan-25 02:33N 26°04' W 080°08'0 0.0
2015-Jan-25 01:33N 26°04' W 080°08'0 0.0
2015-Jan-25 00:33N 26°04' W 080°08'0 0.0
2015-Jan-24 23:33N 26°04' W 080°08'0 0.0
2015-Jan-24 22:33N 26°04' W 080°08'0 0.0
2015-Jan-24 21:33N 26°04' W 080°08'0 0.0
2015-Jan-24 20:33N 26°04' W 080°08'0 0.0
2015-Jan-24 19:33N 26°04' W 080°08'0 0.0
2015-Jan-24 18:33N 26°04' W 080°08'0 0.0
2015-Jan-24 17:33N 26°04' W 080°08'0 0.0
2015-Jan-24 16:33N 26°04' W 080°08'0 0.1
2015-Jan-24 15:33N 26°04' W 080°08'0 0.1
2015-Jan-24 14:33N 26°04' W 080°08'2 1.9
2015-Jan-24 13:33N 26°05' W 080°07'9 9.3
2015-Jan-24 12:33N 26°03' W 079°57'10 9.8
2015-Jan-24 11:33N 26°00' W 079°46'1010.0
2015-Jan-24 10:33N 25°57' W 079°36'17 0.3
2015-Jan-22 08:17N 26°14' W 079°36'7 9.8
2015-Jan-22 07:33N 26°13' W 079°43'1010.3
2015-Jan-22 06:33N 26°09' W 079°54'1010.0
2015-Jan-22 05:33N 26°06' W 080°05'3 3.5
2015-Jan-22 04:33N 26°04' W 080°08'0 0.0
2015-Jan-22 03:33N 26°04' W 080°08'0 0.0
2015-Jan-22 02:33N 26°04' W 080°08'0 0.0
2015-Jan-22 01:33N 26°04' W 080°08'0 0.0
2015-Jan-22 00:33N 26°04' W 080°08'0 0.0
2015-Jan-21 23:33N 26°04' W 080°08'0 0.0
2015-Jan-21 22:50N 26°04' W 080°08'0 0.0
2015-Jan-21 22:46N 26°04' W 080°08'0 0.0
2015-Jan-21 22:33N 26°04' W 080°08'0 0.0
2015-Jan-21 21:33N 26°04' W 080°08'3 2.7
2015-Jan-21 20:33N 26°05' W 080°05'9 9.1
2015-Jan-21 19:34N 26°08' W 079°56'9 9.4
2015-Jan-21 18:33N 26°11' W 079°46'10 9.6
2015-Jan-21 17:34N 26°15' W 079°36'6 0.5
2015-Jan-21 05:32N 26°13' W 079°42'1010.5
2015-Jan-21 04:33N 26°09' W 079°53'1110.6
2015-Jan-21 03:33N 26°06' W 080°04'4 4.0
2015-Jan-21 02:33N 26°04' W 080°08'0 0.0
2015-Jan-21 01:33N 26°04' W 080°08'0 0.0
2015-Jan-21 00:33N 26°04' W 080°08'0 0.0
2015-Jan-20 23:33N 26°04' W 080°08'6 6.3
2015-Jan-20 22:33N 26°04' W 080°01'1110.8
2015-Jan-20 21:33N 26°01' W 079°49'1111.0
2015-Jan-20 20:33N 25°58' W 079°38'  
2015-Jan-17 21:17N 25°58' W 079°39'6 8.3
2015-Jan-17 20:33N 26°00' W 079°45'8 8.3
2015-Jan-17 19:33N 26°03' W 079°54'9 9.2
2015-Jan-17 18:34N 26°05' W 080°04'4 3.9
2015-Jan-17 17:34N 26°04' W 080°08'0 0.0
2015-Jan-17 16:33N 26°04' W 080°08'0 0.0
2015-Jan-17 15:34N 26°04' W 080°08'0 0.0
2015-Jan-17 14:33N 26°04' W 080°08'0 0.1
2015-Jan-17 13:34N 26°04' W 080°08'0 0.0
2015-Jan-17 12:33N 26°04' W 080°08'0 0.0
2015-Jan-17 11:33N 26°04' W 080°08'0 0.0
2015-Jan-17 10:33N 26°04' W 080°08'0 0.0
2015-Jan-17 09:33N 26°04' W 080°08'0 0.0
2015-Jan-17 08:33N 26°04' W 080°08'0 0.0
2015-Jan-17 07:33N 26°04' W 080°08'0 0.0
2015-Jan-17 06:33N 26°04' W 080°08'0 0.0
2015-Jan-17 05:33N 26°04' W 080°08'0 0.0
2015-Jan-17 04:33N 26°04' W 080°08'0 0.0
2015-Jan-17 03:34N 26°04' W 080°08'0 0.0
2015-Jan-17 02:33N 26°04' W 080°08'0 0.0
2015-Jan-17 01:33N 26°04' W 080°08'0 0.0
2015-Jan-17 00:33N 26°04' W 080°08'0 0.0
2015-Jan-16 23:33N 26°04' W 080°08'0 0.0
2015-Jan-16 22:33N 26°04' W 080°08'0 0.0
2015-Jan-16 21:33N 26°04' W 080°08'0 0.0
2015-Jan-16 20:33N 26°04' W 080°08'0 0.0
2015-Jan-16 19:33N 26°04' W 080°08'0 0.0
2015-Jan-16 18:33N 26°04' W 080°08'0 0.0
2015-Jan-16 17:33N 26°04' W 080°08'0 0.0
2015-Jan-16 16:33N 26°04' W 080°08'0 0.0
2015-Jan-16 15:33N 26°04' W 080°08'0 0.0
2015-Jan-16 14:34N 26°04' W 080°08'0 0.1
2015-Jan-16 13:33N 26°04' W 080°08'2 2.0
2015-Jan-16 12:33N 26°06' W 080°07'9 9.1
2015-Jan-16 11:34N 26°04' W 079°57'10 9.7
2015-Jan-16 10:33N 26°01' W 079°47'9 9.3
2015-Jan-16 09:33N 25°58' W 079°37'  
Track history (hours):
 
Tides and Currents Weather Stations Pressure Air Temp Water Temp Dewpoint Dewpoint Depression Visibility Wind Speed Wind Dir Waves Ship Positions

Seaexpressii

Last reported at 2015-Jan-26 08:08 UTC. Time now 2015-Jan-27 10:24 UTC.
Position N 25°58' W 079°37'.

Length 37 m; draft 2 m.

Type: Ship. MMSI: 356449000.

Date/timePositionNaut miles runAvg speedWind from/ knotsBaromVisibWave heightAir tempDewpointWater temp
2015-Jan-26 08:08N 25°58' W 079°37'5 9.4
2015-Jan-26 07:33N 25°60' W 079°43'9 9.0
2015-Jan-26 06:32N 26°02' W 079°53'9 9.3
2015-Jan-26 05:33N 26°05' W 080°03'5 4.7
2015-Jan-26 04:33N 26°04' W 080°08'0 0.0
2015-Jan-26 03:33N 26°04' W 080°08'0 0.0
2015-Jan-26 02:33N 26°04' W 080°08'0 0.0
2015-Jan-26 01:33N 26°04' W 080°08'0 0.0
2015-Jan-26 00:33N 26°04' W 080°08'0 0.0
2015-Jan-25 23:33N 26°04' W 080°08'3 2.6
2015-Jan-25 22:33N 26°05' W 080°05'0 0.0
2015-Jan-25 21:33N 26°05' W 080°05'8 8.5
2015-Jan-25 20:34N 26°00' W 079°58'1110.9
2015-Jan-25 19:33N 25°54' W 079°48'5 0.4
2015-Jan-25 06:33N 25°57' W 079°52'8 8.0
2015-Jan-25 05:33N 26°01' W 079°59'8 7.9
2015-Jan-25 04:33N 26°05' W 080°07'2 1.7
2015-Jan-25 03:34N 26°04' W 080°08'0 0.0
2015-Jan-25 02:33N 26°04' W 080°08'0 0.0
2015-Jan-25 01:33N 26°04' W 080°08'0 0.0
2015-Jan-25 00:33N 26°04' W 080°08'0 0.0
2015-Jan-24 23:33N 26°04' W 080°08'0 0.0
2015-Jan-24 22:33N 26°04' W 080°08'0 0.0
2015-Jan-24 21:33N 26°04' W 080°08'0 0.0
2015-Jan-24 20:33N 26°04' W 080°08'0 0.0
2015-Jan-24 19:33N 26°04' W 080°08'0 0.0
2015-Jan-24 18:33N 26°04' W 080°08'0 0.0
2015-Jan-24 17:33N 26°04' W 080°08'0 0.0
2015-Jan-24 16:33N 26°04' W 080°08'0 0.1
2015-Jan-24 15:33N 26°04' W 080°08'0 0.1
2015-Jan-24 14:33N 26°04' W 080°08'2 1.9
2015-Jan-24 13:33N 26°05' W 080°07'9 9.3
2015-Jan-24 12:33N 26°03' W 079°57'10 9.8
2015-Jan-24 11:33N 26°00' W 079°46'1010.0
2015-Jan-24 10:33N 25°57' W 079°36'17 0.3
2015-Jan-22 08:17N 26°14' W 079°36'7 9.8
2015-Jan-22 07:33N 26°13' W 079°43'1010.3
2015-Jan-22 06:33N 26°09' W 079°54'1010.0
2015-Jan-22 05:33N 26°06' W 080°05'3 3.5
2015-Jan-22 04:33N 26°04' W 080°08'0 0.0
2015-Jan-22 03:33N 26°04' W 080°08'0 0.0
2015-Jan-22 02:33N 26°04' W 080°08'0 0.0
2015-Jan-22 01:33N 26°04' W 080°08'0 0.0
2015-Jan-22 00:33N 26°04' W 080°08'0 0.0
2015-Jan-21 23:33N 26°04' W 080°08'0 0.0
2015-Jan-21 22:50N 26°04' W 080°08'0 0.0
2015-Jan-21 22:46N 26°04' W 080°08'0 0.0
2015-Jan-21 22:33N 26°04' W 080°08'0 0.0
2015-Jan-21 21:33N 26°04' W 080°08'3 2.7
2015-Jan-21 20:33N 26°05' W 080°05'9 9.1
2015-Jan-21 19:34N 26°08' W 079°56'9 9.4
2015-Jan-21 18:33N 26°11' W 079°46'10 9.6
2015-Jan-21 17:34N 26°15' W 079°36'6 0.5
2015-Jan-21 05:32N 26°13' W 079°42'1010.5
2015-Jan-21 04:33N 26°09' W 079°53'1110.6
2015-Jan-21 03:33N 26°06' W 080°04'4 4.0
2015-Jan-21 02:33N 26°04' W 080°08'0 0.0
2015-Jan-21 01:33N 26°04' W 080°08'0 0.0
2015-Jan-21 00:33N 26°04' W 080°08'0 0.0
2015-Jan-20 23:33N 26°04' W 080°08'6 6.3
2015-Jan-20 22:33N 26°04' W 080°01'1110.8
2015-Jan-20 21:33N 26°01' W 079°49'1111.0
2015-Jan-20 20:33N 25°58' W 079°38'  
2015-Jan-17 21:17N 25°58' W 079°39'6 8.3
2015-Jan-17 20:33N 26°00' W 079°45'8 8.3
2015-Jan-17 19:33N 26°03' W 079°54'9 9.2
2015-Jan-17 18:34N 26°05' W 080°04'4 3.9
2015-Jan-17 17:34N 26°04' W 080°08'0 0.0
2015-Jan-17 16:33N 26°04' W 080°08'0 0.0
2015-Jan-17 15:34N 26°04' W 080°08'0 0.0
2015-Jan-17 14:33N 26°04' W 080°08'0 0.1
2015-Jan-17 13:34N 26°04' W 080°08'0 0.0
2015-Jan-17 12:33N 26°04' W 080°08'0 0.0
2015-Jan-17 11:33N 26°04' W 080°08'0 0.0
2015-Jan-17 10:33N 26°04' W 080°08'0 0.0
2015-Jan-17 09:33N 26°04' W 080°08'0 0.0
2015-Jan-17 08:33N 26°04' W 080°08'0 0.0
2015-Jan-17 07:33N 26°04' W 080°08'0 0.0
2015-Jan-17 06:33N 26°04' W 080°08'0 0.0
2015-Jan-17 05:33N 26°04' W 080°08'0 0.0
2015-Jan-17 04:33N 26°04' W 080°08'0 0.0
2015-Jan-17 03:34N 26°04' W 080°08'0 0.0
2015-Jan-17 02:33N 26°04' W 080°08'0 0.0
2015-Jan-17 01:33N 26°04' W 080°08'0 0.0
2015-Jan-17 00:33N 26°04' W 080°08'0 0.0
2015-Jan-16 23:33N 26°04' W 080°08'0 0.0
2015-Jan-16 22:33N 26°04' W 080°08'0 0.0
2015-Jan-16 21:33N 26°04' W 080°08'0 0.0
2015-Jan-16 20:33N 26°04' W 080°08'0 0.0
2015-Jan-16 19:33N 26°04' W 080°08'0 0.0
2015-Jan-16 18:33N 26°04' W 080°08'0 0.0
2015-Jan-16 17:33N 26°04' W 080°08'0 0.0
2015-Jan-16 16:33N 26°04' W 080°08'0 0.0
2015-Jan-16 15:33N 26°04' W 080°08'0 0.0
2015-Jan-16 14:34N 26°04' W 080°08'0 0.1
2015-Jan-16 13:33N 26°04' W 080°08'2 2.0
2015-Jan-16 12:33N 26°06' W 080°07'9 9.1
2015-Jan-16 11:34N 26°04' W 079°57'10 9.7
2015-Jan-16 10:33N 26°01' W 079°47'9 9.3
2015-Jan-16 09:33N 25°58' W 079°37'  

Dump ship's entire track history